»·PEaware :: SWA3188 KOAK-KPHX

SWA3188 :: KOAK-KPHX

FLIGHT INFORMATION

Flight Status: Arrived
Operator:
Southwest Airlines
More flights by this operator :: More flights under this callsign
Pilot: Andrew M. (139)
Aircraft: BOEING 737-800
(B738)
More flights by this aircraft type
Origin: KOAK Metro Oakland Intl
United States
Destination: KPHX Phoenix Sky Harbor Intl
United States
More flights between these airports :: More routes between these airports
Route: CNDEL4 LOSHN BOILE BLH HYDRR1
File this flight plan on PilotEdge
Remarks: PBN / A1B1C1D1S1S2 NAV / RNVD1E2A1 REG / N608BT EET / KZLA0030 KZAB0109 RMK / SIMBRIEF
Altitude:
(Current/Filed)
35,000ft
Speed:
(Current/Filed)
449kts
Departed: 04-Jan-19 06:39 PM
Arrived: 04-Jan-19 08:09 PM
Distance/Time
Traveled:
561nm/1:29
Distance/Time
To Go:
Arrived

Flight Plot

Page will automatically refresh every two minutes.

Flight plan parsing failed; only flown route is shown


Map Options




Map Legend


Flown Route
Filed Route
Departure Airport
Arrival Airport
Navaid (VOR, NDB)
Fix

Horizontal Profiles

Position Reports

Time Latitude Longitude Heading Altitude Ground
Speed
04-Jan-19 17:47 37.712744 -122.215919 168 11ft 0kts
04-Jan-19 17:48 37.712830 -122.215942 168 16ft 0kts
04-Jan-19 17:49 37.712744 -122.215919 168 11ft 0kts
04-Jan-19 17:50 37.712744 -122.215919 168 11ft 0kts
04-Jan-19 17:51 37.712744 -122.215919 168 11ft 0kts
04-Jan-19 17:52 37.712744 -122.215919 168 11ft 0kts
04-Jan-19 17:53 37.712744 -122.215919 168 11ft 0kts
04-Jan-19 17:54 37.712744 -122.215919 168 11ft 0kts
04-Jan-19 17:55 37.712744 -122.215919 168 11ft 0kts
04-Jan-19 17:56 37.712744 -122.215919 168 11ft 0kts
04-Jan-19 17:57 37.712744 -122.215919 168 11ft 0kts
04-Jan-19 17:58 37.712744 -122.215919 168 11ft 0kts
04-Jan-19 17:59 37.712744 -122.215919 168 11ft 0kts
04-Jan-19 18:00 37.712744 -122.215919 168 11ft 0kts
04-Jan-19 18:01 37.712744 -122.215919 168 11ft 0kts
04-Jan-19 18:02 37.712744 -122.215919 168 11ft 0kts
04-Jan-19 18:03 37.712744 -122.215919 168 11ft 0kts
04-Jan-19 18:04 37.712744 -122.215919 168 11ft 0kts
04-Jan-19 18:05 37.712744 -122.215919 168 11ft 0kts
04-Jan-19 18:06 37.712744 -122.215919 168 11ft 0kts
04-Jan-19 18:07 37.712744 -122.215919 168 11ft 0kts
04-Jan-19 18:08 37.712744 -122.215919 168 11ft 0kts
04-Jan-19 18:09 37.712744 -122.215919 168 11ft 0kts
04-Jan-19 18:10 37.712744 -122.215919 168 11ft 0kts
04-Jan-19 18:11 37.712744 -122.215919 168 11ft 0kts
04-Jan-19 18:12 37.712744 -122.215919 168 11ft 0kts
04-Jan-19 18:13 37.712744 -122.215919 168 11ft 0kts
04-Jan-19 18:14 37.712744 -122.215919 168 11ft 0kts
04-Jan-19 18:15 37.712744 -122.215919 168 11ft 0kts
04-Jan-19 18:16 37.712744 -122.215919 168 11ft 0kts
04-Jan-19 18:17 37.712744 -122.215919 168 11ft 0kts
04-Jan-19 18:18 37.712744 -122.215919 168 11ft 0kts
04-Jan-19 18:19 37.712744 -122.215919 168 11ft 0kts
04-Jan-19 18:20 37.712744 -122.215919 168 11ft 0kts
04-Jan-19 18:21 37.712744 -122.215919 168 11ft 0kts
04-Jan-19 18:22 37.712854 -122.216401 96 11ft 2kts
04-Jan-19 18:23 37.712968 -122.216945 174 11ft 0kts
04-Jan-19 18:24 37.713021 -122.216948 176 11ft 0kts
04-Jan-19 18:25 37.713021 -122.216948 176 11ft 0kts
04-Jan-19 18:26 37.713021 -122.216948 176 11ft 0kts
04-Jan-19 18:27 37.712464 -122.216870 174 11ft 7kts
04-Jan-19 18:28 37.710736 -122.218640 287 11ft 8kts
04-Jan-19 18:29 37.712171 -122.220845 309 11ft 9kts
04-Jan-19 18:30 37.713940 -122.220826 47 11ft 9kts
04-Jan-19 18:31 37.715955 -122.217985 47 11ft 12kts
04-Jan-19 18:32 37.718513 -122.214401 47 11ft 14kts
04-Jan-19 18:33 37.720790 -122.209715 67 11ft 17kts
04-Jan-19 18:34 37.721572 -122.207218 68 11ft 0kts
04-Jan-19 18:35 37.721572 -122.207218 68 11ft 0kts
04-Jan-19 18:36 37.721590 -122.207160 68 11ft 2kts
04-Jan-19 18:37 37.722424 -122.206494 294 11ft 4kts
04-Jan-19 18:38 37.730919 -122.234473 289 539ft 167kts
04-Jan-19 18:39 37.759429 -122.299535 303 2006ft 261kts
04-Jan-19 18:40 37.793717 -122.377745 253 4685ft 265kts
04-Jan-19 18:41 37.735747 -122.416783 190 7966ft 255kts
04-Jan-19 18:42 37.664176 -122.433676 190 10410ft 282kts
04-Jan-19 18:43 37.582434 -122.452905 192 12962ft 306kts
04-Jan-19 18:44 37.497266 -122.454682 164 16064ft 326kts
04-Jan-19 18:45 37.426235 -122.375666 136 18833ft 361kts
04-Jan-19 18:46 37.362083 -122.276278 137 21420ft 374kts
04-Jan-19 18:47 37.295493 -122.173390 137 23771ft 386kts
04-Jan-19 18:48 37.226421 -122.067040 137 25787ft 401kts
04-Jan-19 18:49 37.154781 -121.957090 137 27580ft 416kts
04-Jan-19 18:50 37.080404 -121.843172 137 29269ft 429kts
04-Jan-19 18:51 37.003723 -121.726175 138 30805ft 442kts
04-Jan-19 18:52 36.925224 -121.606748 139 32531ft 447kts
04-Jan-19 18:53 36.846897 -121.487960 141 34157ft 450kts
04-Jan-19 18:54 36.766404 -121.366477 140 34994ft 462kts
04-Jan-19 18:55 36.684761 -121.243519 140 34980ft 462kts
04-Jan-19 18:56 36.602911 -121.120695 140 34987ft 461kts
04-Jan-19 18:57 36.520641 -120.997745 140 35002ft 463kts
04-Jan-19 18:58 36.438045 -120.874276 140 35009ft 465kts
04-Jan-19 18:59 36.355563 -120.750893 140 35011ft 466kts
04-Jan-19 19:00 36.272298 -120.626834 139 35011ft 469kts
04-Jan-19 19:01 36.188899 -120.503007 139 35013ft 470kts
04-Jan-19 19:02 36.105001 -120.378895 139 35013ft 470kts
04-Jan-19 19:03 36.022806 -120.257700 140 35000ft 470kts
04-Jan-19 19:04 35.938709 -120.134141 140 35002ft 470kts
04-Jan-19 19:05 35.856300 -120.013518 140 35013ft 471kts
04-Jan-19 19:06 35.771036 -119.891437 141 35013ft 469kts
04-Jan-19 19:07 35.685787 -119.770486 141 35015ft 471kts
04-Jan-19 19:08 35.599884 -119.649045 140 35015ft 470kts
04-Jan-19 19:09 35.513755 -119.527749 140 35017ft 473kts
04-Jan-19 19:10 35.427348 -119.406466 140 35031ft 471kts
04-Jan-19 19:11 35.342524 -119.287798 141 35029ft 472kts
04-Jan-19 19:12 35.255637 -119.166609 141 35031ft 472kts
04-Jan-19 19:13 35.168736 -119.045854 141 35032ft 473kts
04-Jan-19 19:14 35.081598 -118.925190 141 35045ft 473kts
04-Jan-19 19:15 34.994434 -118.804943 140 35059ft 474kts
04-Jan-19 19:16 34.906949 -118.684653 140 35064ft 474kts
04-Jan-19 19:17 34.820435 -118.566128 140 35078ft 474kts
04-Jan-19 19:18 34.732737 -118.446434 140 35089ft 475kts
04-Jan-19 19:19 34.648431 -118.331743 141 35079ft 474kts
04-Jan-19 19:20 34.560456 -118.212371 141 35079ft 474kts
04-Jan-19 19:21 34.472384 -118.093315 141 35081ft 476kts
04-Jan-19 19:22 34.403428 -117.952710 113 35093ft 504kts
04-Jan-19 19:23 34.365281 -117.788603 112 35103ft 508kts
04-Jan-19 19:24 34.325966 -117.625025 112 35105ft 507kts
04-Jan-19 19:25 34.286388 -117.461619 111 35108ft 506kts
04-Jan-19 19:26 34.246482 -117.297905 112 35094ft 505kts
04-Jan-19 19:27 34.206628 -117.135029 112 35087ft 506kts
04-Jan-19 19:28 34.166647 -116.972845 111 35102ft 506kts
04-Jan-19 19:29 34.126291 -116.810285 111 35118ft 506kts
04-Jan-19 19:30 34.085533 -116.647229 111 35116ft 507kts
04-Jan-19 19:31 34.044690 -116.484926 111 35116ft 507kts
04-Jan-19 19:32 34.003656 -116.322915 111 35102ft 506kts
04-Jan-19 19:34 33.962468 -116.160771 111 35104ft 507kts
04-Jan-19 19:35 33.920878 -115.998162 111 35107ft 507kts
04-Jan-19 19:36 33.879172 -115.836211 111 35113ft 507kts
04-Jan-19 19:37 33.837139 -115.674074 111 35116ft 507kts
04-Jan-19 19:38 33.794794 -115.511800 111 35117ft 506kts
04-Jan-19 19:39 33.752318 -115.350186 112 35123ft 513kts
04-Jan-19 19:40 33.709467 -115.187491 113 35107ft 511kts
04-Jan-19 19:41 33.666303 -115.024672 112 35104ft 511kts
04-Jan-19 19:42 33.623091 -114.862780 112 35102ft 510kts
04-Jan-19 19:43 33.582731 -114.699440 106 35106ft 513kts
04-Jan-19 19:44 33.550801 -114.532637 106 34299ft 512kts
04-Jan-19 19:45 33.518252 -114.365536 105 31527ft 518kts
04-Jan-19 19:46 33.486452 -114.203319 106 27456ft 480kts
04-Jan-19 19:47 33.457460 -114.056626 106 25112ft 431kts
04-Jan-19 19:48 33.428914 -113.914477 106 25073ft 438kts
04-Jan-19 19:49 33.400468 -113.773063 106 25076ft 438kts
04-Jan-19 19:50 33.371803 -113.631345 106 25052ft 439kts
04-Jan-19 19:51 33.343163 -113.490506 106 22185ft 424kts
04-Jan-19 19:51 33.322407 -113.378547 103 20067ft 409kts
04-Jan-19 19:53 33.296423 -113.227107 103 17246ft 389kts
04-Jan-19 19:53 33.281827 -113.126124 102 15896ft 354kts
04-Jan-19 19:55 33.275578 -112.994154 88 14042ft 337kts
04-Jan-19 19:55 33.278524 -112.902316 91 12653ft 326kts
04-Jan-19 19:57 33.294032 -112.782641 67 11297ft 305kts
04-Jan-19 19:57 33.322240 -112.708083 67 10606ft 285kts
04-Jan-19 19:58 33.354437 -112.623736 67 9578ft 275kts
04-Jan-19 19:59 33.385776 -112.541831 66 8519ft 261kts
04-Jan-19 20:00 33.413847 -112.466198 68 7474ft 240kts
04-Jan-19 20:01 33.428896 -112.391164 91 7011ft 219kts
04-Jan-19 20:02 33.428738 -112.321073 91 6076ft 205kts
04-Jan-19 20:03 33.428713 -112.255435 90 4940ft 191kts
04-Jan-19 20:04 33.428797 -112.193667 90 3896ft 180kts
04-Jan-19 20:05 33.428836 -112.136620 89 2946ft 156kts
04-Jan-19 20:06 33.428874 -112.087561 89 2141ft 143kts
04-Jan-19 20:07 33.428921 -112.040245 90 1373ft 143kts
04-Jan-19 20:08 33.428850 -112.007735 89 1121ft 19kts
04-Jan-19 20:09 33.429349 -112.005028 44 1122ft 0kts
04-Jan-19 20:10 33.429594 -112.004731 48 1122ft 5kts
04-Jan-19 20:11 33.431436 -112.003315 359 1123ft 9kts
04-Jan-19 20:12 33.432042 -112.003120 58 1124ft 3kts
04-Jan-19 20:13 33.432775 -112.000155 62 1125ft 11kts
04-Jan-19 20:14 33.434003 -111.997890 81 1124ft 3kts
04-Jan-19 20:15 33.434048 -111.997263 89 1124ft 0kts
04-Jan-19 20:16 33.434048 -111.997263 89 1124ft 0kts
04-Jan-19 20:17 33.434048 -111.997263 89 1124ft 0kts
04-Jan-19 20:18 33.434048 -111.997263 89 1124ft 0kts
04-Jan-19 20:19 33.434048 -111.997263 89 1124ft 0kts
04-Jan-19 20:20 33.434048 -111.997263 89 1124ft 0kts
04-Jan-19 20:21 33.434048 -111.997263 89 1124ft 0kts

Navigation Log

Ident Type
Flight plan parsing failed, navigation log unavailable